Latest Weather Observations for Bradshaw

IDD60801

Issued at 2:35 pm CST Tuesday 21 October 2014 (issued every 30 minutes, with the page automatically refreshed every 10 minutes)

About weather observations | Map of weather stations | Latest weather observations for NT | Other Formats
Station Details ID: 014954 Name: BRADSHAW Lat: -14.94 Lon: 130.81 Height: 75.0 m
Data from the previous 72 hours. | See also: Recent months at Bradshaw
Date/Time
CST
Temp
°C
App
Temp
°C
Dew
Point
Rel
Hum
%
Delta-T
°C
Wind Press
QNH
hPa
Press
MSL
hPa
Rain
since 9 am
mm
Dir
 
Spd
km/h
Gust
km/h
Spd
kts
Gust
kts
21/02:30pm 38.4 34.8 10.7 19 16.5 E 20 33 11 18 1012.1 - 0.0
21/02:00pm 37.2 33.6 10.5 20 15.7 ESE 20 30 11 16 1012.7 - 0.0
21/01:30pm 38.1 36.6 12.0 21 15.8 E 11 20 6 11 1013.2 - 0.0
21/01:00pm 37.9 36.6 13.8 23 14.9 ENE 13 24 7 13 1014.0 - 0.0
21/12:30pm 36.0 34.1 14.1 27 13.5 N 17 26 9 14 1014.6 - 0.0
21/12:00pm 36.2 34.3 15.3 28 13.1 N 19 24 10 13 1015.4 1014.9 0.0
21/11:30am 35.1 35.7 15.9 31 12.1 NNE 7 17 4 9 1015.9 - 0.0
21/11:00am 35.2 35.7 17.4 34 11.5 N 11 24 6 13 1016.3 - 0.0
21/10:30am 33.9 33.5 18.0 39 10.3 N 17 28 9 15 1016.6 - 0.0
21/10:00am 32.7 33.2 19.2 44 8.9 NNW 15 20 8 11 1016.8 - 0.0
21/09:30am 31.9 31.9 19.8 48 8.0 NNW 19 26 10 14 1017.0 - 0.0
21/09:00am 30.5 31.7 20.7 55 6.5 N 15 22 8 12 1017.1 1016.6 0.0
21/08:30am 30.6 32.4 21.9 59 5.9 N 15 20 8 11 1017.0 - 0.0
21/08:00am 29.1 31.3 22.6 68 4.4 N 15 20 8 11 1016.8 - 0.0
21/07:30am 27.7 31.6 22.6 74 3.5 NNW 6 7 3 4 1016.3 - 0.0
21/07:00am 26.3 31.0 21.9 77 2.9 CALM 0 0 0 0 1016.1 - 0.0
21/06:30am 25.4 29.9 21.5 79 2.6 CALM 0 0 0 0 1015.7 - 0.0
21/06:00am 25.4 29.4 20.6 75 3.1 NE 0 0 0 0 1015.5 1015.0 0.0
21/05:30am 25.6 29.7 20.8 75 3.2 CALM 0 0 0 0 1015.1 - 0.0
21/05:00am 26.2 29.0 21.6 76 3.1 NNW 9 13 5 7 1014.6 - 0.0
21/04:30am 26.3 28.4 21.7 76 3.1 N 13 19 7 10 1014.5 - 0.0
21/04:00am 25.5 27.1 18.2 64 4.6 NE 7 9 4 5 1014.1 - 0.0
21/03:30am 26.1 28.2 20.2 70 3.9 NNW 9 11 5 6 1013.8 - 0.0
21/03:00am 26.6 29.2 19.2 64 4.8 N 4 9 2 5 1013.4 1012.8 0.0
21/02:30am 26.7 27.5 19.1 63 4.9 NW 13 17 7 9 1012.9 - 0.0
21/02:00am 26.6 27.9 18.5 61 5.2 WSW 9 11 5 6 1012.9 - 0.0
21/01:30am 28.5 29.2 19.7 59 5.8 N 15 24 8 13 1012.9 - 0.0
21/01:00am 27.1 25.9 6.5 27 10.8 SW 2 7 1 4 1012.9 - 0.0
21/12:30am 29.3 29.1 14.7 41 8.9 S 9 15 5 8 1013.1 - 0.0
21/12:00am 30.3 27.4 4.9 20 13.3 N 9 15 5 8 1013.0 1012.4 0.0
 
Date/Time
CST
Temp
°C
App
Temp
°C
Dew
Point
Rel
Hum
%
Delta-T
°C
Wind Press
QNH
hPa
Press
MSL
hPa
Rain
since 9 am
mm
Dir
 
Spd
km/h
Gust
km/h
Spd
kts
Gust
kts
20/11:30pm 27.5 24.7 5.1 24 11.5 N 9 13 5 7 1013.1 - 0.0
20/11:00pm 28.9 26.0 6.3 24 12.0 NE 11 13 6 7 1013.2 - 0.0
20/10:30pm 26.5 24.3 6.0 27 10.7 NE 7 11 4 6 1013.3 - 0.0
20/10:00pm 27.6 26.6 5.8 25 11.4 CALM 0 0 0 0 1013.2 - 0.0
20/09:30pm 29.6 28.6 5.6 22 12.6 CALM 0 2 0 1 1012.9 - 0.0
20/09:00pm 29.8 28.8 5.8 22 12.7 CALM 0 0 0 0 1012.6 1012.0 0.0
20/08:30pm 31.4 29.7 4.2 18 14.1 NE 2 6 1 3 1012.2 - 0.0
20/08:00pm 32.4 29.8 3.4 16 14.9 E 6 7 3 4 1011.9 - 0.0
20/07:30pm 34.7 31.2 3.3 14 16.4 E 11 13 6 7 1011.5 - 0.0
20/07:00pm 35.7 32.1 3.0 13 17.1 ESE 11 17 6 9 1011.0 - 0.0
20/06:30pm 36.6 33.3 2.6 12 17.7 E 9 15 5 8 1010.6 - 0.0
20/06:00pm 37.9 33.4 2.4 11 18.6 ESE 15 22 8 12 1010.3 1009.7 0.0
20/05:30pm 38.4 32.7 2.8 11 18.8 SE 22 32 12 17 1010.1 - 0.0
20/05:00pm 38.7 34.4 3.0 11 18.9 ENE 15 20 8 11 1009.9 - 0.0
20/04:30pm 39.2 34.2 3.4 11 19.2 ESE 19 32 10 17 1010.0 - 0.0
20/04:00pm 39.4 34.5 2.2 10 19.6 E 17 28 9 15 1010.4 - 0.0
20/03:30pm 38.7 33.0 3.0 11 18.9 ESE 22 35 12 19 1010.6 - 0.0
20/03:00pm 39.2 33.2 3.4 11 19.2 ESE 24 37 13 20 1011.0 1010.4 0.0
20/02:30pm 38.4 33.3 6.2 14 17.9 E 22 30 12 16 1011.6 - 0.0
20/02:00pm 37.7 34.9 10.1 19 16.2 E 15 22 8 12 1012.0 - 0.0
20/01:30pm 37.6 34.0 10.0 19 16.2 SE 19 33 10 18 1012.8 - 0.0
20/01:00pm 37.9 35.8 11.1 20 16.0 SSE 13 30 7 16 1013.4 - 0.0
20/12:30pm 36.2 33.1 10.4 21 15.1 ENE 17 26 9 14 1014.2 - 0.0
20/12:00pm 36.3 34.8 13.1 25 14.2 ENE 13 26 7 14 1014.7 1014.1 0.0
20/11:30am 35.4 34.0 14.6 28 12.9 NE 15 24 8 13 1015.2 - 0.0
20/11:00am 34.8 34.2 15.7 32 12.0 NE 13 28 7 15 1015.7 - 0.0
20/10:30am 34.4 34.6 17.6 37 10.9 ENE 13 20 7 11 1016.3 - 0.0
20/10:00am 33.1 35.9 20.9 48 8.2 NW 7 11 4 6 1016.5 - 0.0
20/09:30am 32.0 35.5 22.1 55 6.8 NW 7 13 4 7 1016.8 - 0.0
20/09:00am 31.2 34.5 22.5 60 5.9 NW 9 13 5 7 1016.8 1016.3 0.0
20/08:30am 29.7 33.9 22.4 65 5.0 NW 4 9 2 5 1016.6 - 0.0
20/08:00am 28.5 32.4 22.5 70 4.1 W 6 9 3 5 1016.4 - 0.0
20/07:30am 27.6 32.1 22.3 73 3.6 W 2 7 1 4 1016.1 - 0.0
20/07:00am 26.1 31.0 22.4 80 2.5 CALM 0 6 0 3 1015.5 - 0.0
20/06:30am 25.0 28.3 20.7 77 2.8 E 4 7 2 4 1015.2 - 0.0
20/06:00am 24.9 27.9 21.2 80 2.4 N 7 9 4 5 1014.7 1014.1 0.0
20/05:30am 25.2 28.3 21.5 80 2.5 NE 7 9 4 5 1014.4 - 0.0
20/05:00am 25.4 29.2 20.9 76 3.0 NNE 2 9 1 5 1014.3 - 0.0
20/04:30am 26.2 30.7 21.6 76 3.1 CALM 0 0 0 0 1013.8 - 0.0
20/04:00am 26.2 28.6 21.6 76 3.1 N 11 15 6 8 1013.3 - 0.0
20/03:30am 26.7 29.5 21.5 73 3.5 NNW 9 13 5 7 1013.3 - 0.0
20/03:00am 26.7 29.9 21.2 72 3.7 NNW 6 11 3 6 1013.2 1012.6 0.0
20/02:30am 26.9 29.4 20.3 67 4.3 NNW 7 11 4 6 1013.3 - 0.0
20/02:00am 27.6 29.0 20.4 65 4.7 NNW 13 17 7 9 1013.2 - 0.0
20/01:30am 28.5 29.6 19.7 59 5.8 N 13 20 7 11 1013.4 - 0.0
20/01:00am 28.4 30.4 19.1 57 6.0 NNW 7 13 4 7 1013.6 - 0.0
20/12:30am 28.9 30.2 19.2 55 6.3 NW 11 17 6 9 1013.7 - 0.0
20/12:00am 29.1 31.1 18.8 53 6.7 NNW 6 9 3 5 1013.8 1013.2 0.0
 
Date/Time
CST
Temp
°C
App
Temp
°C
Dew
Point
Rel
Hum
%
Delta-T
°C
Wind Press
QNH
hPa
Press
MSL
hPa
Rain
since 9 am
mm
Dir
 
Spd
km/h
Gust
km/h
Spd
kts
Gust
kts
19/11:30pm 29.9 31.2 19.3 53 6.9 NW 11 17 6 9 1013.8 - 0.0
19/11:00pm 30.7 30.3 16.3 42 9.0 NW 13 20 7 11 1013.4 - 0.0
19/10:30pm 30.3 26.9 4.1 19 13.5 NNE 11 17 6 9 1013.0 - 0.0
19/10:00pm 29.0 26.3 3.8 20 12.8 NNE 7 7 4 4 1012.6 - 0.0
19/09:30pm 31.0 28.0 3.9 18 14.0 NE 9 11 5 6 1012.4 - 0.0
19/09:00pm 30.3 27.3 4.1 19 13.5 ENE 9 13 5 7 1012.2 1011.6 0.0
19/08:30pm 33.8 30.1 2.6 14 16.0 E 11 13 6 7 1011.8 - 0.0
19/08:00pm 33.9 30.3 2.7 14 16.0 E 11 13 6 7 1011.4 - 0.0
19/07:30pm 34.5 31.3 3.1 14 16.3 E 9 13 5 7 1011.0 - 0.0
19/07:00pm 35.8 32.2 3.1 13 17.1 E 11 17 6 9 1010.6 - 0.0
19/06:30pm 37.3 33.1 1.9 11 18.3 E 13 20 7 11 1010.2 - 0.0
19/06:00pm 38.3 34.3 2.7 11 18.8 E 13 19 7 10 1009.8 1009.2 0.0
19/05:30pm 39.1 36.1 1.9 10 19.5 E 7 20 4 11 1009.5 - 0.0
19/05:00pm 39.2 35.6 0.6 9 19.8 NE 9 15 5 8 1009.5 - 0.0
19/04:30pm 39.8 35.1 1.0 9 20.1 ENE 15 41 8 22 1009.6 - 0.0
19/04:00pm 39.7 35.2 2.4 10 19.7 SSE 15 24 8 13 1009.8 - 0.0
19/03:30pm 40.0 35.2 2.6 10 19.9 NNE 17 24 9 13 1009.9 - 0.0
19/03:00pm 39.8 37.1 3.8 11 19.5 S 7 15 4 8 1010.3 1009.7 0.0
19/02:30pm 39.9 35.3 3.9 11 19.5 ESE 17 24 9 13 1010.6 - 0.0
19/02:00pm 39.2 34.5 3.4 11 19.2 E 17 30 9 16 1011.1 - 0.0
19/01:30pm 39.1 34.5 5.7 13 18.5 NNE 19 33 10 18 1011.7 - 0.0
19/01:00pm 38.7 33.9 5.4 13 18.3 NE 20 33 11 18 1012.2 - 0.0
19/12:30pm 39.1 33.6 5.7 13 18.5 ENE 24 35 13 19 1012.8 - 0.0
19/12:00pm 38.0 33.3 7.8 16 17.2 NE 22 32 12 17 1013.6 1013.0 0.0
19/11:30am 36.7 33.7 10.8 21 15.3 NE 17 28 9 15 1014.1 - 0.0
19/11:00am 35.8 35.5 14.4 27 13.3 NNW 9 17 5 9 1014.6 - 0.0
19/10:30am 34.8 34.2 14.7 30 12.5 N 11 19 6 10 1014.8 - 0.0
19/10:00am 32.9 33.8 17.5 39 9.9 NNW 9 17 5 9 1015.2 - 0.0
19/09:30am 31.4 31.9 18.4 46 8.4 NNW 13 20 7 11 1015.5 - 0.0
19/09:00am 30.3 30.7 19.0 50 7.3 NNW 15 20 8 11 1015.6 1015.1 0.0
19/08:30am 29.0 30.4 18.7 53 6.6 NW 9 13 5 7 1015.6 - 0.0
19/08:00am 28.0 30.4 18.7 57 6.0 NNE 4 9 2 5 1015.5 - 0.0
19/07:30am 26.1 27.6 18.0 61 5.1 NNE 7 9 4 5 1015.2 - 0.0
19/07:00am 25.2 25.9 17.9 64 4.6 NNE 11 13 6 7 1014.8 - 0.0
19/06:30am 23.4 24.3 16.7 66 4.1 NNE 7 9 4 5 1014.5 - 0.0
19/06:00am 23.3 23.8 16.6 66 4.1 NE 9 11 5 6 1014.2 1013.6 0.0
19/05:30am 23.4 24.1 16.0 63 4.5 N 7 11 4 6 1014.1 - 0.0
19/05:00am 24.3 24.6 17.1 64 4.5 NE 11 15 6 8 1013.8 - 0.0
19/04:30am 23.8 24.1 16.1 62 4.7 NE 9 15 5 8 1013.5 - 0.0
19/04:00am 23.6 23.8 14.6 57 5.3 NNE 7 11 4 6 1013.1 - 0.0
19/03:30am 24.0 23.5 13.8 53 6.0 NNE 9 13 5 7 1012.8 - 0.0
19/03:00am 24.8 23.6 14.0 51 6.4 NE 13 19 7 10 1012.7 1012.1 0.0
19/02:30am 24.8 25.0 14.6 53 6.1 ENE 7 11 4 6 1012.2 - 0.0
19/02:00am 25.8 24.7 16.4 56 5.8 NNE 17 20 9 11 1012.5 - 0.0
19/01:30am 26.1 26.9 18.2 61 5.0 NNW 11 17 6 9 1012.0 - 0.0
19/01:00am 24.0 21.8 8.0 36 8.5 N 9 13 5 7 1012.4 - 0.0
19/12:30am 24.8 23.4 12.1 45 7.3 N 11 13 6 7 1012.7 - 0.0
19/12:00am 25.2 24.0 10.3 39 8.3 NW 7 9 4 5 1012.8 1012.2 0.0
 
Date/Time
CST
Temp
°C
App
Temp
°C
Dew
Point
Rel
Hum
%
Delta-T
°C
Wind Press
QNH
hPa
Press
MSL
hPa
Rain
since 9 am
mm
Dir
 
Spd
km/h
Gust
km/h
Spd
kts
Gust
kts
18/11:30pm 25.1 22.5 3.1 24 10.8 WNW 6 11 3 6 1013.0 - 0.0
18/11:00pm 27.4 24.7 -2.4 14 13.4 NNW 2 9 1 5 1012.7 - 0.0
18/10:30pm 28.3 24.0 -1.7 14 13.8 N 11 17 6 9 1012.5 - 0.0
18/10:00pm 26.2 23.6 -1.6 16 12.6 N 2 9 1 5 1012.4 - 0.0
18/09:30pm 25.2 23.0 -1.6 17 12.0 CALM 0 0 0 0 1012.3 - 0.0
18/09:00pm 27.6 25.1 -1.3 15 13.3 N 2 7 1 4 1012.1 1011.5 0.0
18/08:30pm 28.9 26.7 -1.2 14 14.0 CALM 0 2 0 1 1011.7 - 0.0
18/08:00pm 28.9 25.3 -2.3 13 14.2 NNE 7 9 4 5 1011.4 - 0.0
18/07:30pm 32.8 29.9 -4.2 9 16.8 E 2 6 1 3 1011.2 - 0.0
18/07:00pm 33.7 31.1 -5.1 8 17.5 CALM 0 6 0 3 1010.8 - 0.0
18/06:30pm 36.6 32.7 -4.7 7 19.2 E 7 9 4 5 1010.4 - 0.0
18/06:00pm 38.0 34.5 -5.8 6 20.2 E 4 9 2 5 1010.0 1009.4 0.0
18/05:30pm 38.5 34.1 -5.4 6 20.4 ESE 9 17 5 9 1009.7 - 0.0
18/05:00pm 38.8 33.7 -5.2 6 20.6 ESE 13 19 7 10 1009.7 - 0.0
18/04:30pm 39.0 34.5 -3.0 7 20.4 S 11 15 6 8 1009.7 - 0.0
18/04:00pm 39.2 34.0 -2.9 7 20.5 ESE 15 26 8 14 1009.9 - 0.0
18/03:30pm 39.4 35.7 -2.7 7 20.6 NE 7 15 4 8 1010.1 - 0.0
18/03:00pm 39.0 34.5 -3.0 7 20.4 ESE 11 20 6 11 1010.4 1009.8 0.0

Other Formats:

Comma delimited format used in spreadsheet applications
http://www.bom.gov.au/fwo/IDD60801/IDD60801.94130.axf

JavaScript Object Notation format (JSON) in row-major order
http://www.bom.gov.au/fwo/IDD60801/IDD60801.94130.json